createdAt,value
2018-07-29T00:00:30.005Z,20.00
2018-07-29T00:02:58.136Z,19.90
2018-07-29T00:05:26.286Z,19.90
2018-07-29T00:07:54.450Z,19.90
2018-07-29T00:10:22.697Z,19.90
2018-07-29T00:12:50.894Z,19.80
2018-07-29T00:15:19.052Z,19.80
2018-07-29T00:17:47.240Z,19.70
2018-07-29T00:20:15.460Z,19.60
2018-07-29T00:22:43.642Z,19.50
2018-07-29T00:25:11.812Z,19.40
2018-07-29T00:27:39.997Z,19.30
2018-07-29T00:30:08.196Z,19.30
2018-07-29T00:32:36.415Z,19.30
2018-07-29T00:35:05.016Z,19.20
2018-07-29T00:37:33.194Z,19.20
2018-07-29T00:40:01.400Z,19.10
2018-07-29T00:42:29.605Z,19.00
2018-07-29T00:44:57.763Z,18.90
2018-07-29T00:47:25.968Z,19.00
2018-07-29T00:49:54.147Z,19.00
2018-07-29T00:52:22.343Z,19.00
2018-07-29T00:54:50.576Z,18.90
2018-07-29T00:57:18.703Z,18.90
2018-07-29T00:59:46.869Z,18.70
2018-07-29T01:02:15.045Z,18.70
2018-07-29T01:04:43.183Z,18.70
2018-07-29T01:07:11.363Z,18.70
2018-07-29T01:09:39.536Z,18.70
2018-07-29T01:12:07.884Z,18.70
2018-07-29T01:14:36.016Z,18.60
2018-07-29T01:17:04.172Z,18.60
2018-07-29T01:19:32.349Z,18.60
2018-07-29T01:22:00.543Z,18.60
2018-07-29T01:24:28.707Z,18.60
2018-07-29T01:26:56.914Z,18.50
2018-07-29T01:29:25.090Z,18.60
2018-07-29T01:31:53.288Z,18.50
2018-07-29T01:34:21.437Z,18.50
2018-07-29T01:36:49.595Z,18.40
2018-07-29T01:39:17.737Z,18.40
2018-07-29T01:41:45.889Z,18.40
2018-07-29T01:44:14.064Z,18.40
2018-07-29T01:46:42.238Z,18.30
2018-07-29T01:49:10.393Z,18.30
2018-07-29T01:51:38.556Z,18.20
2018-07-29T01:54:06.750Z,18.20
2018-07-29T01:56:34.979Z,18.20
2018-07-29T01:59:03.380Z,18.20
2018-07-29T02:01:31.568Z,18.20
2018-07-29T02:03:59.812Z,18.20
2018-07-29T02:06:28.076Z,18.20
2018-07-29T02:08:56.308Z,18.20
2018-07-29T02:11:24.544Z,18.20
2018-07-29T02:13:53.053Z,18.20
2018-07-29T02:16:21.298Z,18.20
2018-07-29T02:18:49.577Z,18.20
2018-07-29T02:21:17.901Z,18.20
2018-07-29T02:23:46.223Z,18.20
2018-07-29T02:26:14.473Z,18.20
2018-07-29T02:28:42.728Z,18.10
2018-07-29T02:31:10.913Z,18.20
2018-07-29T02:33:39.214Z,18.10
2018-07-29T02:36:07.434Z,18.00
2018-07-29T02:38:35.650Z,18.00
2018-07-29T02:41:03.864Z,18.00
2018-07-29T02:43:32.069Z,18.00
2018-07-29T02:46:00.338Z,18.00
2018-07-29T02:48:28.533Z,18.00
2018-07-29T02:50:56.696Z,18.00
2018-07-29T02:53:24.913Z,17.90
2018-07-29T02:55:53.171Z,17.90
2018-07-29T02:58:21.471Z,17.90
2018-07-29T03:00:49.677Z,17.90
2018-07-29T03:03:17.983Z,17.80
2018-07-29T03:05:46.176Z,17.80
2018-07-29T03:08:14.464Z,17.70
2018-07-29T03:10:42.696Z,17.60
2018-07-29T03:13:10.976Z,17.60
2018-07-29T03:15:39.216Z,17.60
2018-07-29T03:18:07.451Z,17.60
2018-07-29T03:20:35.613Z,17.60
2018-07-29T03:23:03.882Z,17.60
2018-07-29T03:25:32.044Z,17.60
2018-07-29T03:28:00.323Z,17.60
2018-07-29T03:30:28.584Z,17.60
2018-07-29T03:32:56.857Z,17.50
2018-07-29T03:35:25.124Z,17.30
2018-07-29T03:37:53.497Z,17.30
2018-07-29T03:40:21.713Z,17.30
2018-07-29T03:42:49.939Z,17.30
2018-07-29T03:45:18.132Z,17.20
2018-07-29T03:47:46.309Z,17.10
2018-07-29T03:50:14.561Z,17.10
2018-07-29T03:52:42.733Z,17.10
2018-07-29T03:55:10.956Z,17.10
2018-07-29T03:57:39.352Z,17.10
2018-07-29T04:00:07.552Z,17.10
2018-07-29T04:02:35.789Z,17.10
2018-07-29T04:05:04.053Z,17.10
2018-07-29T04:07:32.239Z,17.10
2018-07-29T04:10:00.479Z,17.10
2018-07-29T04:12:28.683Z,17.10
2018-07-29T04:14:57.010Z,17.00
2018-07-29T04:17:25.339Z,17.00
2018-07-29T04:19:53.546Z,17.00
2018-07-29T04:22:21.784Z,17.10
2018-07-29T04:24:50.147Z,17.10
2018-07-29T04:27:18.442Z,17.00
2018-07-29T04:29:46.774Z,17.10
2018-07-29T04:32:15.221Z,17.10
2018-07-29T04:34:43.493Z,17.10
2018-07-29T04:37:11.708Z,17.10
2018-07-29T04:39:39.939Z,17.10
2018-07-29T04:42:08.200Z,17.10
2018-07-29T04:44:36.456Z,17.20
2018-07-29T04:47:04.712Z,17.20
2018-07-29T04:49:33.085Z,17.30
2018-07-29T04:52:01.316Z,17.30
2018-07-29T04:54:29.581Z,17.30
2018-07-29T04:59:26.141Z,17.40
2018-07-29T05:01:54.569Z,17.50
2018-07-29T05:04:22.913Z,17.50
2018-07-29T05:06:51.177Z,17.60
2018-07-29T05:09:19.415Z,17.60
2018-07-29T05:11:47.724Z,17.60
2018-07-29T05:14:15.956Z,17.60
2018-07-29T05:16:44.266Z,17.70
2018-07-29T05:19:12.748Z,17.70
2018-07-29T05:21:41.381Z,17.70
2018-07-29T05:24:09.828Z,17.80
2018-07-29T05:26:38.264Z,17.90
2018-07-29T05:29:06.750Z,18.00
2018-07-29T05:31:35.371Z,18.00
2018-07-29T05:34:05.474Z,18.00
2018-07-29T05:36:33.832Z,18.00
2018-07-29T05:39:02.207Z,18.10
2018-07-29T05:41:30.490Z,18.20
2018-07-29T05:43:58.714Z,18.20
2018-07-29T05:46:26.884Z,18.20
2018-07-29T05:48:55.408Z,18.30
2018-07-29T05:51:23.740Z,18.40
2018-07-29T05:53:52.172Z,18.40
2018-07-29T05:56:20.591Z,18.50
2018-07-29T05:58:48.951Z,18.50
2018-07-29T06:01:17.227Z,18.60
2018-07-29T06:03:45.653Z,18.60
2018-07-29T06:06:13.966Z,18.70
2018-07-29T06:08:42.179Z,18.80
2018-07-29T06:11:10.480Z,18.80
2018-07-29T06:13:38.701Z,18.90
2018-07-29T06:16:07.150Z,18.90
2018-07-29T06:18:35.370Z,18.90
2018-07-29T06:21:03.638Z,18.90
2018-07-29T06:23:31.872Z,19.00
2018-07-29T06:26:00.070Z,19.00
2018-07-29T06:28:28.213Z,19.10
2018-07-29T06:30:56.444Z,19.20
2018-07-29T06:33:25.104Z,19.20
2018-07-29T06:35:53.476Z,19.30
2018-07-29T06:38:22.411Z,19.30
2018-07-29T06:40:50.547Z,19.40
2018-07-29T06:43:18.736Z,19.50
2018-07-29T06:45:46.920Z,19.50
2018-07-29T06:48:15.139Z,19.60
2018-07-29T06:50:43.321Z,19.60
2018-07-29T06:53:11.522Z,19.70
2018-07-29T06:55:40.061Z,19.80
2018-07-29T06:58:08.289Z,19.80
2018-07-29T07:00:36.495Z,19.90
2018-07-29T07:03:04.765Z,19.90
2018-07-29T07:05:32.984Z,20.00
2018-07-29T07:08:01.149Z,20.00
2018-07-29T07:10:29.560Z,20.00
2018-07-29T07:12:57.780Z,20.10
2018-07-29T07:15:26.017Z,20.20
2018-07-29T07:17:54.195Z,20.20
2018-07-29T07:20:22.369Z,20.30
2018-07-29T07:22:50.579Z,20.40
2018-07-29T07:25:18.719Z,20.50
2018-07-29T07:27:46.907Z,20.50
2018-07-29T07:30:15.121Z,20.60
2018-07-29T07:32:43.417Z,20.70
2018-07-29T07:35:11.536Z,20.90
2018-07-29T07:37:39.896Z,21.00
2018-07-29T07:40:08.163Z,21.00
2018-07-29T07:42:36.540Z,21.00
2018-07-29T07:45:05.159Z,21.10
2018-07-29T07:47:33.405Z,21.20
2018-07-29T07:52:36.394Z,21.30
2018-07-29T07:55:04.953Z,21.30
2018-07-29T07:57:33.140Z,21.40
2018-07-29T08:00:01.489Z,21.40
2018-07-29T08:02:29.719Z,21.40
2018-07-29T08:04:58.134Z,21.50
2018-07-29T08:07:26.382Z,21.60
2018-07-29T08:09:54.954Z,21.80
2018-07-29T08:12:23.263Z,22.00
2018-07-29T08:14:51.456Z,22.00
2018-07-29T08:19:55.889Z,22.30
2018-07-29T08:22:24.102Z,22.40
2018-07-29T08:24:52.232Z,22.60
2018-07-29T08:27:20.469Z,22.60
2018-07-29T08:29:48.632Z,22.70
2018-07-29T08:32:16.774Z,22.70
2018-07-29T08:34:44.970Z,22.60
2018-07-29T08:37:13.864Z,22.50
2018-07-29T08:39:42.017Z,22.50
2018-07-29T08:42:10.188Z,22.40
2018-07-29T08:44:38.324Z,22.40
2018-07-29T08:47:06.497Z,22.40
2018-07-29T08:49:34.692Z,22.40
2018-07-29T08:52:02.964Z,22.50
2018-07-29T08:54:31.119Z,22.60
2018-07-29T08:56:59.360Z,22.70
2018-07-29T08:59:27.552Z,22.70
2018-07-29T09:01:55.727Z,22.90
2018-07-29T09:04:24.053Z,23.00
2018-07-29T09:06:52.256Z,23.00
2018-07-29T09:09:20.428Z,23.00
2018-07-29T09:11:48.631Z,23.00
2018-07-29T09:14:16.840Z,23.00
2018-07-29T09:16:45.054Z,23.00
2018-07-29T09:19:13.305Z,22.90
2018-07-29T09:21:41.637Z,22.90
2018-07-29T09:24:09.796Z,22.90
2018-07-29T09:26:38.054Z,22.90
2018-07-29T09:29:06.585Z,23.00
2018-07-29T09:31:34.740Z,23.00
2018-07-29T09:34:03.967Z,23.00
2018-07-29T09:36:32.156Z,23.00
2018-07-29T09:39:00.332Z,23.10
2018-07-29T09:41:28.500Z,23.30
2018-07-29T09:43:57.320Z,23.50
2018-07-29T09:46:25.591Z,23.50
2018-07-29T09:48:53.744Z,23.60
2018-07-29T09:51:21.942Z,23.70
2018-07-29T09:53:50.401Z,23.80
2018-07-29T09:56:18.545Z,23.90
2018-07-29T09:58:46.708Z,23.90
2018-07-29T10:01:14.985Z,24.00
2018-07-29T10:03:43.424Z,23.90
2018-07-29T10:06:11.601Z,24.00
2018-07-29T10:08:39.759Z,23.90
2018-07-29T10:11:07.920Z,24.00
2018-07-29T10:13:36.094Z,24.00
2018-07-29T10:16:04.296Z,24.10
2018-07-29T10:18:32.460Z,24.10
2018-07-29T10:21:00.739Z,24.10
2018-07-29T10:23:28.924Z,24.10
2018-07-29T10:25:57.092Z,24.20
2018-07-29T10:28:25.289Z,24.10
2018-07-29T10:30:53.515Z,24.20
2018-07-29T10:33:21.725Z,24.10
2018-07-29T10:35:50.033Z,24.20
2018-07-29T10:38:18.341Z,24.10
2018-07-29T10:40:46.658Z,24.10
2018-07-29T10:43:14.895Z,24.20
2018-07-29T10:45:43.159Z,24.30
2018-07-29T10:48:11.369Z,24.30
2018-07-29T10:50:39.529Z,24.40
2018-07-29T10:53:08.122Z,24.50
2018-07-29T10:55:36.338Z,24.50
2018-07-29T10:58:04.587Z,24.50
2018-07-29T11:00:32.749Z,24.50
2018-07-29T11:03:00.935Z,24.60
2018-07-29T11:05:29.118Z,24.70
2018-07-29T11:07:57.300Z,24.80
2018-07-29T11:10:25.440Z,24.70
2018-07-29T11:12:53.589Z,24.80
2018-07-29T11:15:21.806Z,24.90
2018-07-29T11:17:49.975Z,24.90
2018-07-29T11:20:18.211Z,24.90
2018-07-29T11:22:46.416Z,25.00
2018-07-29T11:25:14.596Z,25.00
2018-07-29T11:27:42.859Z,24.90
2018-07-29T11:30:11.057Z,25.00
2018-07-29T11:32:39.243Z,25.10
2018-07-29T11:35:08.170Z,25.10
2018-07-29T11:37:36.382Z,25.20
2018-07-29T11:40:04.617Z,25.20
2018-07-29T11:42:32.907Z,25.20
2018-07-29T11:45:01.128Z,25.20
2018-07-29T11:47:29.288Z,25.30
2018-07-29T11:49:57.467Z,25.30
2018-07-29T11:52:25.686Z,25.40
2018-07-29T11:54:54.014Z,25.50
2018-07-29T11:57:22.217Z,25.50
2018-07-29T11:59:50.528Z,25.50
2018-07-29T12:02:18.700Z,25.50
2018-07-29T12:04:46.950Z,25.40
2018-07-29T12:07:15.151Z,25.50
2018-07-29T12:09:43.376Z,25.50
2018-07-29T12:12:11.608Z,25.60
2018-07-29T12:14:39.785Z,25.70
2018-07-29T12:17:08.163Z,25.80
2018-07-29T12:19:36.352Z,25.90
2018-07-29T12:22:04.549Z,26.10
2018-07-29T12:24:32.797Z,26.20
2018-07-29T12:27:01.174Z,26.20
2018-07-29T12:29:29.406Z,26.40
2018-07-29T12:31:57.634Z,26.50
2018-07-29T12:34:25.824Z,26.60
2018-07-29T12:36:54.100Z,26.80
2018-07-29T12:39:22.291Z,26.90
2018-07-29T12:41:50.542Z,27.00
2018-07-29T12:44:18.750Z,27.10
2018-07-29T12:46:46.972Z,27.20
2018-07-29T12:49:15.228Z,27.30
2018-07-29T12:51:43.489Z,27.20
2018-07-29T12:54:11.675Z,27.20
2018-07-29T12:56:39.832Z,27.10
2018-07-29T12:59:08.062Z,27.00
2018-07-29T13:01:36.289Z,27.00
2018-07-29T13:04:08.308Z,27.00
2018-07-29T13:06:37.296Z,26.90
2018-07-29T13:09:07.951Z,27.00
2018-07-29T13:11:36.552Z,27.00
2018-07-29T13:14:04.759Z,27.00
2018-07-29T13:16:33.041Z,26.90
2018-07-29T13:19:01.249Z,27.00
2018-07-29T13:21:29.501Z,26.90
2018-07-29T13:23:57.689Z,26.90
2018-07-29T13:26:26.150Z,26.90
2018-07-29T13:28:54.319Z,26.90
2018-07-29T13:31:22.501Z,26.90
2018-07-29T13:33:50.789Z,26.90
2018-07-29T13:36:19.017Z,26.90
2018-07-29T13:38:47.322Z,26.90
2018-07-29T13:41:15.547Z,26.90
2018-07-29T13:43:44.085Z,26.90
2018-07-29T13:46:12.608Z,27.00
2018-07-29T13:48:40.807Z,27.00
2018-07-29T13:51:09.570Z,27.10
2018-07-29T13:53:37.974Z,27.00
2018-07-29T13:56:06.482Z,27.00
2018-07-29T13:58:34.715Z,27.00
2018-07-29T14:01:02.908Z,27.10
2018-07-29T14:03:31.292Z,27.10
2018-07-29T14:05:59.490Z,27.10
2018-07-29T14:08:28.084Z,27.10
2018-07-29T14:10:56.436Z,27.20
2018-07-29T14:13:24.872Z,27.20
2018-07-29T14:15:53.147Z,27.20
2018-07-29T14:18:21.392Z,27.20
2018-07-29T14:20:49.685Z,27.30
2018-07-29T14:23:18.508Z,27.30
2018-07-29T14:25:46.821Z,27.30
2018-07-29T14:28:15.129Z,27.20
2018-07-29T14:30:43.351Z,27.30
2018-07-29T14:33:11.587Z,27.30
2018-07-29T14:35:40.718Z,27.40
2018-07-29T14:38:08.985Z,27.40
2018-07-29T14:40:37.328Z,27.60
2018-07-29T14:43:05.677Z,27.50
2018-07-29T14:45:34.099Z,27.50
2018-07-29T14:48:02.326Z,27.60
2018-07-29T14:50:30.569Z,27.70
2018-07-29T14:52:58.961Z,27.70
2018-07-29T14:55:27.176Z,27.80
2018-07-29T14:57:55.361Z,27.80
2018-07-29T15:00:23.624Z,27.90
2018-07-29T15:02:51.921Z,27.90
2018-07-29T15:05:20.148Z,27.90
2018-07-29T15:07:48.353Z,28.00
2018-07-29T15:10:20.773Z,28.00
2018-07-29T15:12:49.107Z,28.00
2018-07-29T15:15:17.572Z,28.00
2018-07-29T15:17:46.018Z,27.90
2018-07-29T15:20:14.336Z,28.00
2018-07-29T15:22:42.828Z,28.00
2018-07-29T15:25:11.113Z,28.20
2018-07-29T15:27:39.353Z,28.40
2018-07-29T15:30:09.030Z,28.50
2018-07-29T15:32:37.246Z,28.60
2018-07-29T15:35:05.834Z,28.70
2018-07-29T15:37:34.044Z,28.70
2018-07-29T15:40:02.281Z,28.70
2018-07-29T15:42:30.504Z,28.70
2018-07-29T15:44:58.862Z,28.70
2018-07-29T15:47:27.085Z,28.80
2018-07-29T15:49:55.301Z,28.80
2018-07-29T15:52:23.568Z,28.80
2018-07-29T15:54:52.002Z,28.70
2018-07-29T15:57:20.480Z,28.70
2018-07-29T15:59:51.089Z,28.60
2018-07-29T16:02:19.365Z,28.60
2018-07-29T16:04:47.704Z,28.60
2018-07-29T16:07:17.112Z,28.60
2018-07-29T16:09:45.436Z,28.50
2018-07-29T16:12:13.816Z,28.50
2018-07-29T16:14:41.994Z,28.50
2018-07-29T16:17:10.320Z,28.60
2018-07-29T16:22:06.566Z,28.60
2018-07-29T16:24:34.803Z,28.60
2018-07-29T16:27:03.386Z,28.60
2018-07-29T16:29:31.656Z,28.60
2018-07-29T16:31:59.908Z,28.60
2018-07-29T16:34:28.137Z,28.70
2018-07-29T16:36:56.490Z,28.70
2018-07-29T16:39:24.768Z,28.60
2018-07-29T16:41:53.547Z,28.60
2018-07-29T16:44:22.108Z,28.60
2018-07-29T16:46:50.340Z,28.50
2018-07-29T16:51:46.676Z,28.40
2018-07-29T16:54:14.978Z,28.30
2018-07-29T16:56:43.313Z,28.30
2018-07-29T16:59:11.514Z,28.20
2018-07-29T17:01:39.752Z,28.20
2018-07-29T17:04:07.952Z,28.30
2018-07-29T17:06:36.155Z,28.20
2018-07-29T17:09:07.429Z,28.20
2018-07-29T17:11:35.568Z,28.20
2018-07-29T17:14:04.370Z,28.30
2018-07-29T17:16:33.020Z,28.20
2018-07-29T17:19:01.204Z,28.20
2018-07-29T17:21:29.468Z,28.20
2018-07-29T17:23:57.691Z,28.10
2018-07-29T17:26:25.924Z,28.10
2018-07-29T17:28:54.363Z,28.00
2018-07-29T17:31:23.081Z,28.00
2018-07-29T17:33:51.248Z,27.90
2018-07-29T17:36:19.436Z,27.80
2018-07-29T17:38:48.084Z,27.80
2018-07-29T17:41:16.356Z,27.80
2018-07-29T17:43:44.856Z,27.80
2018-07-29T17:46:13.038Z,27.80
2018-07-29T17:48:41.327Z,27.80
2018-07-29T17:51:09.499Z,27.80
2018-07-29T17:53:37.836Z,27.80
2018-07-29T17:56:05.955Z,27.80
2018-07-29T17:58:34.110Z,27.70
2018-07-29T18:01:02.297Z,27.70
2018-07-29T18:03:30.501Z,27.70
2018-07-29T18:05:58.764Z,27.60
2018-07-29T18:08:27.036Z,27.60
2018-07-29T18:10:55.529Z,27.60
2018-07-29T18:13:23.768Z,27.50
2018-07-29T18:15:51.949Z,27.50
2018-07-29T18:18:20.224Z,27.50
2018-07-29T18:20:48.436Z,27.40
2018-07-29T18:23:16.836Z,27.40
2018-07-29T18:25:44.906Z,27.30
2018-07-29T18:28:13.152Z,27.30
2018-07-29T18:30:42.257Z,27.30
2018-07-29T18:33:10.605Z,27.30
2018-07-29T18:35:38.848Z,27.20
2018-07-29T18:38:07.290Z,27.20
2018-07-29T18:40:35.521Z,27.10
2018-07-29T18:43:03.695Z,27.10
2018-07-29T18:45:31.980Z,27.10
2018-07-29T18:48:00.199Z,27.00
2018-07-29T18:50:28.436Z,27.00
2018-07-29T18:52:56.672Z,27.00
2018-07-29T18:55:25.085Z,26.90
2018-07-29T18:57:53.319Z,26.90
2018-07-29T19:00:21.608Z,26.90
2018-07-29T19:02:49.840Z,26.90
2018-07-29T19:05:18.045Z,26.90
2018-07-29T19:07:46.225Z,26.80
2018-07-29T19:10:14.406Z,26.80
2018-07-29T19:12:42.576Z,26.80
2018-07-29T19:15:10.844Z,26.80
2018-07-29T19:17:39.114Z,26.80
2018-07-29T19:20:07.309Z,26.70
2018-07-29T19:22:35.490Z,26.70
2018-07-29T19:25:03.738Z,26.70
2018-07-29T19:27:31.927Z,26.70
2018-07-29T19:30:00.164Z,26.60
2018-07-29T19:32:28.305Z,26.60
2018-07-29T19:34:56.481Z,26.60
2018-07-29T19:37:24.659Z,26.60
2018-07-29T19:39:52.829Z,26.60
2018-07-29T19:42:21.003Z,26.50
2018-07-29T19:47:17.249Z,26.50
2018-07-29T19:49:45.340Z,26.40
2018-07-29T19:52:13.523Z,26.40
2018-07-29T19:54:41.714Z,26.40
2018-07-29T19:57:10.168Z,26.40
2018-07-29T19:59:38.383Z,26.30
2018-07-29T20:02:07.341Z,26.20
2018-07-29T20:04:35.572Z,26.20
2018-07-29T20:07:03.945Z,26.20
2018-07-29T20:09:32.271Z,26.10
2018-07-29T20:12:00.522Z,26.10
2018-07-29T20:16:56.692Z,26.10
2018-07-29T20:19:24.942Z,26.00
2018-07-29T20:21:53.648Z,26.00
2018-07-29T20:24:21.862Z,25.90
2018-07-29T20:26:50.222Z,25.90
2018-07-29T20:29:18.640Z,25.80
2018-07-29T20:31:46.909Z,25.80
2018-07-29T20:34:15.168Z,25.80
2018-07-29T20:36:43.493Z,25.80
2018-07-29T20:39:12.698Z,25.70
2018-07-29T20:41:41.566Z,25.70
2018-07-29T20:44:10.876Z,25.60
2018-07-29T20:46:39.061Z,25.60
2018-07-29T20:51:35.375Z,25.60
2018-07-29T20:54:03.852Z,25.50
2018-07-29T20:56:33.102Z,25.50
2018-07-29T20:59:01.484Z,25.50
2018-07-29T21:01:30.756Z,25.40
2018-07-29T21:03:59.036Z,25.40
2018-07-29T21:06:27.332Z,25.40
2018-07-29T21:08:56.712Z,25.40
2018-07-29T21:11:27.007Z,25.30
2018-07-29T21:13:56.228Z,25.30
2018-07-29T21:16:24.509Z,25.30
2018-07-29T21:18:52.683Z,25.30
2018-07-29T21:21:20.910Z,25.20
2018-07-29T21:23:49.190Z,25.20
2018-07-29T21:26:17.360Z,25.20
2018-07-29T21:28:45.469Z,25.20
2018-07-29T21:31:13.637Z,25.20
2018-07-29T21:33:41.780Z,25.10
2018-07-29T21:36:10.143Z,25.10
2018-07-29T21:38:38.286Z,25.10
2018-07-29T21:41:06.519Z,25.10
2018-07-29T21:43:34.591Z,25.00
2018-07-29T21:46:02.767Z,25.10
2018-07-29T21:48:31.008Z,25.00
2018-07-29T21:50:59.472Z,24.90
2018-07-29T21:53:27.646Z,24.90
2018-07-29T21:55:55.817Z,24.90
2018-07-29T21:58:23.964Z,24.80
2018-07-29T22:00:54.893Z,24.70
2018-07-29T22:03:23.232Z,24.70
2018-07-29T22:05:51.415Z,24.60
2018-07-29T22:08:19.693Z,24.60
2018-07-29T22:10:47.877Z,24.50
2018-07-29T22:13:16.033Z,24.50
2018-07-29T22:15:44.522Z,24.40
2018-07-29T22:18:12.708Z,24.40
2018-07-29T22:20:40.955Z,24.30
2018-07-29T22:23:09.297Z,24.30
2018-07-29T22:25:45.712Z,24.30
2018-07-29T22:28:19.322Z,24.20
2018-07-29T22:30:51.940Z,24.20
2018-07-29T22:33:20.127Z,24.20
2018-07-29T22:35:48.325Z,24.10
2018-07-29T22:38:16.504Z,24.10
2018-07-29T22:40:44.696Z,24.10
2018-07-29T22:43:12.964Z,24.00
2018-07-29T22:45:41.156Z,24.00
2018-07-29T22:48:09.350Z,23.90
2018-07-29T22:50:37.673Z,23.80
2018-07-29T22:53:05.879Z,23.80
2018-07-29T22:55:34.068Z,23.80
2018-07-29T22:58:02.240Z,23.70
2018-07-29T23:00:30.442Z,23.60
2018-07-29T23:02:58.681Z,23.50
2018-07-29T23:05:26.898Z,23.50
2018-07-29T23:07:55.096Z,23.30
2018-07-29T23:10:23.312Z,23.30
2018-07-29T23:12:51.558Z,23.20
2018-07-29T23:15:19.770Z,23.20
2018-07-29T23:17:48.033Z,23.10
2018-07-29T23:20:16.280Z,23.10
2018-07-29T23:22:44.425Z,23.00
2018-07-29T23:25:12.645Z,23.00
2018-07-29T23:27:40.897Z,23.00
2018-07-29T23:30:09.132Z,22.90
2018-07-29T23:32:37.356Z,22.90
2018-07-29T23:35:05.644Z,22.80
2018-07-29T23:37:33.844Z,22.80
2018-07-29T23:40:02.045Z,22.70
2018-07-29T23:42:30.396Z,22.70
2018-07-29T23:44:58.596Z,22.60
2018-07-29T23:47:26.783Z,22.60
2018-07-29T23:49:54.972Z,22.50
2018-07-29T23:52:23.185Z,22.50
2018-07-29T23:54:51.448Z,22.50
2018-07-29T23:57:19.647Z,22.30
2018-07-29T23:59:47.959Z,22.40
